sensor_id;sensor_type;location;lat;lon;timestamp;temperature;humidity
20288;DHT22;10303;51.960;8.372;2023-04-15T00:01:27;10.30;80.10
20288;DHT22;10303;51.960;8.372;2023-04-15T00:03:54;10.20;80.10
20288;DHT22;10303;51.960;8.372;2023-04-15T00:06:21;10.20;80.40
20288;DHT22;10303;51.960;8.372;2023-04-15T00:08:47;10.30;80.50
20288;DHT22;10303;51.960;8.372;2023-04-15T00:11:16;10.10;80.50
20288;DHT22;10303;51.960;8.372;2023-04-15T00:13:43;10.10;80.70
20288;DHT22;10303;51.960;8.372;2023-04-15T00:16:09;10.00;80.70
20288;DHT22;10303;51.960;8.372;2023-04-15T00:18:36;10.00;81.20
20288;DHT22;10303;51.960;8.372;2023-04-15T00:21:03;10.00;80.90
20288;DHT22;10303;51.960;8.372;2023-04-15T00:23:30;9.90;81.00
20288;DHT22;10303;51.960;8.372;2023-04-15T00:25:56;9.90;81.00
20288;DHT22;10303;51.960;8.372;2023-04-15T00:28:22;9.80;81.00
20288;DHT22;10303;51.960;8.372;2023-04-15T00:30:49;9.90;81.20
20288;DHT22;10303;51.960;8.372;2023-04-15T00:33:15;9.80;81.40
20288;DHT22;10303;51.960;8.372;2023-04-15T00:35:41;9.80;81.40
20288;DHT22;10303;51.960;8.372;2023-04-15T00:38:07;9.80;81.60
20288;DHT22;10303;51.960;8.372;2023-04-15T00:40:33;9.70;81.70
20288;DHT22;10303;51.960;8.372;2023-04-15T00:43:00;9.70;81.80
20288;DHT22;10303;51.960;8.372;2023-04-15T00:45:26;9.60;81.90
20288;DHT22;10303;51.960;8.372;2023-04-15T00:47:54;9.60;81.90
20288;DHT22;10303;51.960;8.372;2023-04-15T00:50:20;9.60;82.00
20288;DHT22;10303;51.960;8.372;2023-04-15T00:52:47;9.60;82.00
20288;DHT22;10303;51.960;8.372;2023-04-15T00:55:14;9.60;82.10
20288;DHT22;10303;51.960;8.372;2023-04-15T00:57:41;9.50;82.10
20288;DHT22;10303;51.960;8.372;2023-04-15T01:00:07;9.40;82.20
20288;DHT22;10303;51.960;8.372;2023-04-15T01:02:35;9.40;82.30
20288;DHT22;10303;51.960;8.372;2023-04-15T01:05:02;9.40;82.30
20288;DHT22;10303;51.960;8.372;2023-04-15T01:07:29;9.30;82.60
20288;DHT22;10303;51.960;8.372;2023-04-15T01:09:56;9.30;82.60
20288;DHT22;10303;51.960;8.372;2023-04-15T01:12:23;9.30;82.60
20288;DHT22;10303;51.960;8.372;2023-04-15T01:14:52;9.30;82.90
20288;DHT22;10303;51.960;8.372;2023-04-15T01:17:20;9.40;83.00
20288;DHT22;10303;51.960;8.372;2023-04-15T01:19:46;9.20;82.90
20288;DHT22;10303;51.960;8.372;2023-04-15T01:22:12;9.10;83.00
20288;DHT22;10303;51.960;8.372;2023-04-15T01:24:38;9.20;83.20
20288;DHT22;10303;51.960;8.372;2023-04-15T01:27:04;9.10;83.40
20288;DHT22;10303;51.960;8.372;2023-04-15T01:29:31;9.10;83.60
20288;DHT22;10303;51.960;8.372;2023-04-15T01:32:00;9.10;83.80
20288;DHT22;10303;51.960;8.372;2023-04-15T01:34:26;9.00;83.70
20288;DHT22;10303;51.960;8.372;2023-04-15T01:36:53;9.00;83.90
20288;DHT22;10303;51.960;8.372;2023-04-15T01:39:20;9.00;83.90
20288;DHT22;10303;51.960;8.372;2023-04-15T01:41:47;9.10;84.10
20288;DHT22;10303;51.960;8.372;2023-04-15T01:44:15;8.90;84.00
20288;DHT22;10303;51.960;8.372;2023-04-15T01:46:41;8.90;83.90
20288;DHT22;10303;51.960;8.372;2023-04-15T01:49:07;8.90;84.30
20288;DHT22;10303;51.960;8.372;2023-04-15T01:51:33;8.80;84.30
20288;DHT22;10303;51.960;8.372;2023-04-15T01:53:58;8.80;84.60
20288;DHT22;10303;51.960;8.372;2023-04-15T01:56:25;8.80;84.60
20288;DHT22;10303;51.960;8.372;2023-04-15T01:58:51;8.80;84.70
20288;DHT22;10303;51.960;8.372;2023-04-15T02:01:17;8.70;85.20
20288;DHT22;10303;51.960;8.372;2023-04-15T02:03:44;8.70;85.30
20288;DHT22;10303;51.960;8.372;2023-04-15T02:06:11;8.70;85.60
20288;DHT22;10303;51.960;8.372;2023-04-15T02:08:36;8.70;85.50
20288;DHT22;10303;51.960;8.372;2023-04-15T02:11:06;8.70;85.50
20288;DHT22;10303;51.960;8.372;2023-04-15T02:13:32;8.60;85.70
20288;DHT22;10303;51.960;8.372;2023-04-15T02:15:58;8.60;85.70
20288;DHT22;10303;51.960;8.372;2023-04-15T02:18:24;8.60;85.70
20288;DHT22;10303;51.960;8.372;2023-04-15T02:20:51;8.50;85.70
20288;DHT22;10303;51.960;8.372;2023-04-15T02:23:17;8.50;85.80
20288;DHT22;10303;51.960;8.372;2023-04-15T02:25:43;8.50;85.80
20288;DHT22;10303;51.960;8.372;2023-04-15T02:28:09;8.50;86.00
20288;DHT22;10303;51.960;8.372;2023-04-15T02:30:35;8.50;86.30
20288;DHT22;10303;51.960;8.372;2023-04-15T02:33:02;8.60;86.40
20288;DHT22;10303;51.960;8.372;2023-04-15T02:35:29;8.30;86.40
20288;DHT22;10303;51.960;8.372;2023-04-15T02:37:56;8.40;86.50
20288;DHT22;10303;51.960;8.372;2023-04-15T02:40:22;8.50;86.70
20288;DHT22;10303;51.960;8.372;2023-04-15T02:42:48;8.40;87.50
20288;DHT22;10303;51.960;8.372;2023-04-15T02:45:16;8.30;86.70
20288;DHT22;10303;51.960;8.372;2023-04-15T02:47:45;8.30;87.00
20288;DHT22;10303;51.960;8.372;2023-04-15T02:50:12;8.30;88.90
20288;DHT22;10303;51.960;8.372;2023-04-15T02:52:41;8.20;87.70
20288;DHT22;10303;51.960;8.372;2023-04-15T02:55:08;8.20;87.80
20288;DHT22;10303;51.960;8.372;2023-04-15T02:57:36;8.20;87.80
20288;DHT22;10303;51.960;8.372;2023-04-15T03:00:06;8.10;87.80
20288;DHT22;10303;51.960;8.372;2023-04-15T03:02:36;8.10;88.30
20288;DHT22;10303;51.960;8.372;2023-04-15T03:05:04;8.10;88.20
20288;DHT22;10303;51.960;8.372;2023-04-15T03:07:31;8.10;88.30
20288;DHT22;10303;51.960;8.372;2023-04-15T03:09:58;8.10;88.10
20288;DHT22;10303;51.960;8.372;2023-04-15T03:12:25;8.00;88.10
20288;DHT22;10303;51.960;8.372;2023-04-15T03:14:54;8.00;88.20
20288;DHT22;10303;51.960;8.372;2023-04-15T03:17:26;8.30;88.40
20288;DHT22;10303;51.960;8.372;2023-04-15T03:19:52;8.00;88.90
20288;DHT22;10303;51.960;8.372;2023-04-15T03:22:18;7.90;88.30
20288;DHT22;10303;51.960;8.372;2023-04-15T03:24:45;7.90;89.00
20288;DHT22;10303;51.960;8.372;2023-04-15T03:27:11;7.90;88.30
20288;DHT22;10303;51.960;8.372;2023-04-15T03:29:38;7.80;88.40
20288;DHT22;10303;51.960;8.372;2023-04-15T03:32:04;7.80;88.50
20288;DHT22;10303;51.960;8.372;2023-04-15T03:34:33;7.80;88.50
20288;DHT22;10303;51.960;8.372;2023-04-15T03:36:58;7.70;88.70
20288;DHT22;10303;51.960;8.372;2023-04-15T03:39:25;7.80;88.70
20288;DHT22;10303;51.960;8.372;2023-04-15T03:41:50;7.70;89.50
20288;DHT22;10303;51.960;8.372;2023-04-15T03:44:16;7.70;88.80
20288;DHT22;10303;51.960;8.372;2023-04-15T03:46:42;8.00;89.30
20288;DHT22;10303;51.960;8.372;2023-04-15T03:49:09;7.60;89.10
20288;DHT22;10303;51.960;8.372;2023-04-15T03:51:35;7.60;89.20
20288;DHT22;10303;51.960;8.372;2023-04-15T03:54:01;7.60;89.60
20288;DHT22;10303;51.960;8.372;2023-04-15T03:56:27;7.60;89.90
20288;DHT22;10303;51.960;8.372;2023-04-15T03:58:53;7.50;89.80
20288;DHT22;10303;51.960;8.372;2023-04-15T04:01:19;7.50;89.90
20288;DHT22;10303;51.960;8.372;2023-04-15T04:03:45;7.50;90.00
20288;DHT22;10303;51.960;8.372;2023-04-15T04:06:11;7.50;90.00
20288;DHT22;10303;51.960;8.372;2023-04-15T04:08:37;7.50;90.00
20288;DHT22;10303;51.960;8.372;2023-04-15T04:11:03;7.50;90.10
20288;DHT22;10303;51.960;8.372;2023-04-15T04:13:29;7.50;90.10
20288;DHT22;10303;51.960;8.372;2023-04-15T04:15:55;7.50;90.50
20288;DHT22;10303;51.960;8.372;2023-04-15T04:18:21;7.60;90.30
20288;DHT22;10303;51.960;8.372;2023-04-15T04:20:48;7.50;90.30
20288;DHT22;10303;51.960;8.372;2023-04-15T04:23:14;7.40;90.40
20288;DHT22;10303;51.960;8.372;2023-04-15T04:25:40;7.40;90.40
20288;DHT22;10303;51.960;8.372;2023-04-15T04:28:07;7.40;90.40
20288;DHT22;10303;51.960;8.372;2023-04-15T04:30:34;7.40;90.50
20288;DHT22;10303;51.960;8.372;2023-04-15T04:33:00;7.40;90.70
20288;DHT22;10303;51.960;8.372;2023-04-15T04:35:26;7.40;91.00
20288;DHT22;10303;51.960;8.372;2023-04-15T04:37:52;7.60;90.80
20288;DHT22;10303;51.960;8.372;2023-04-15T04:40:18;7.40;90.70
20288;DHT22;10303;51.960;8.372;2023-04-15T04:42:45;7.40;90.90
20288;DHT22;10303;51.960;8.372;2023-04-15T04:45:11;7.60;91.00
20288;DHT22;10303;51.960;8.372;2023-04-15T04:47:37;7.40;91.00
20288;DHT22;10303;51.960;8.372;2023-04-15T04:50:03;7.40;91.10
20288;DHT22;10303;51.960;8.372;2023-04-15T04:52:29;7.40;91.10
20288;DHT22;10303;51.960;8.372;2023-04-15T04:54:55;7.60;91.30
20288;DHT22;10303;51.960;8.372;2023-04-15T04:57:21;7.50;91.40
20288;DHT22;10303;51.960;8.372;2023-04-15T04:59:47;7.50;91.50
20288;DHT22;10303;51.960;8.372;2023-04-15T05:02:12;7.70;91.90
20288;DHT22;10303;51.960;8.372;2023-04-15T05:04:38;7.50;92.30
20288;DHT22;10303;51.960;8.372;2023-04-15T05:07:06;7.50;92.10
20288;DHT22;10303;51.960;8.372;2023-04-15T05:09:32;7.60;92.40
20288;DHT22;10303;51.960;8.372;2023-04-15T05:12:00;7.50;92.30
20288;DHT22;10303;51.960;8.372;2023-04-15T05:14:26;7.60;92.40
20288;DHT22;10303;51.960;8.372;2023-04-15T05:16:52;7.60;92.50
20288;DHT22;10303;51.960;8.372;2023-04-15T05:19:18;7.60;92.80
20288;DHT22;10303;51.960;8.372;2023-04-15T05:21:44;7.80;93.00
20288;DHT22;10303;51.960;8.372;2023-04-15T05:24:10;7.90;93.10
20288;DHT22;10303;51.960;8.372;2023-04-15T05:26:36;7.80;93.10
20288;DHT22;10303;51.960;8.372;2023-04-15T05:29:02;7.80;93.20
20288;DHT22;10303;51.960;8.372;2023-04-15T05:31:28;7.90;93.30
20288;DHT22;10303;51.960;8.372;2023-04-15T05:33:54;7.90;93.60
20288;DHT22;10303;51.960;8.372;2023-04-15T05:36:20;7.90;93.60
20288;DHT22;10303;51.960;8.372;2023-04-15T05:38:46;8.40;93.80
20288;DHT22;10303;51.960;8.372;2023-04-15T05:41:11;8.00;94.20
20288;DHT22;10303;51.960;8.372;2023-04-15T05:43:40;8.10;94.00
20288;DHT22;10303;51.960;8.372;2023-04-15T05:46:06;8.10;94.20
20288;DHT22;10303;51.960;8.372;2023-04-15T05:48:33;8.20;94.20
20288;DHT22;10303;51.960;8.372;2023-04-15T05:50:59;8.40;94.70
20288;DHT22;10303;51.960;8.372;2023-04-15T05:53:25;8.30;95.00
20288;DHT22;10303;51.960;8.372;2023-04-15T05:55:51;8.40;95.80
20288;DHT22;10303;51.960;8.372;2023-04-15T05:58:17;8.50;96.00
20288;DHT22;10303;51.960;8.372;2023-04-15T06:00:43;8.60;95.90
20288;DHT22;10303;51.960;8.372;2023-04-15T06:03:10;8.90;96.20
20288;DHT22;10303;51.960;8.372;2023-04-15T06:05:36;8.70;96.30
20288;DHT22;10303;51.960;8.372;2023-04-15T06:08:03;9.00;96.30
20288;DHT22;10303;51.960;8.372;2023-04-15T06:10:29;8.90;96.70
20288;DHT22;10303;51.960;8.372;2023-04-15T06:12:55;9.00;97.30
20288;DHT22;10303;51.960;8.372;2023-04-15T06:15:21;9.00;97.20
20288;DHT22;10303;51.960;8.372;2023-04-15T06:17:47;9.10;97.40
20288;DHT22;10303;51.960;8.372;2023-04-15T06:20:13;9.30;97.60
20288;DHT22;10303;51.960;8.372;2023-04-15T06:22:39;9.30;98.50
20288;DHT22;10303;51.960;8.372;2023-04-15T06:25:06;9.40;99.20
20288;DHT22;10303;51.960;8.372;2023-04-15T06:27:35;9.40;99.90
20288;DHT22;10303;51.960;8.372;2023-04-15T06:30:01;9.50;99.80
20288;DHT22;10303;51.960;8.372;2023-04-15T06:32:28;9.50;99.90
20288;DHT22;10303;51.960;8.372;2023-04-15T06:34:54;9.60;99.90
20288;DHT22;10303;51.960;8.372;2023-04-15T06:37:19;9.70;99.90
20288;DHT22;10303;51.960;8.372;2023-04-15T06:39:45;9.80;99.90
20288;DHT22;10303;51.960;8.372;2023-04-15T06:42:11;9.80;99.90
20288;DHT22;10303;51.960;8.372;2023-04-15T06:44:37;10.00;99.90
20288;DHT22;10303;51.960;8.372;2023-04-15T06:47:03;10.00;99.90
20288;DHT22;10303;51.960;8.372;2023-04-15T06:49:29;10.20;99.90
20288;DHT22;10303;51.960;8.372;2023-04-15T06:51:55;10.20;99.90
20288;DHT22;10303;51.960;8.372;2023-04-15T06:54:21;10.40;99.90
20288;DHT22;10303;51.960;8.372;2023-04-15T06:56:47;10.30;99.90
20288;DHT22;10303;51.960;8.372;2023-04-15T06:59:13;10.40;99.90
20288;DHT22;10303;51.960;8.372;2023-04-15T07:01:42;10.50;99.90
20288;DHT22;10303;51.960;8.372;2023-04-15T07:04:08;10.60;99.90
20288;DHT22;10303;51.960;8.372;2023-04-15T07:06:34;10.70;99.90
20288;DHT22;10303;51.960;8.372;2023-04-15T07:09:00;10.80;99.90
20288;DHT22;10303;51.960;8.372;2023-04-15T07:11:27;10.80;99.90
20288;DHT22;10303;51.960;8.372;2023-04-15T07:13:53;10.90;99.90
20288;DHT22;10303;51.960;8.372;2023-04-15T07:16:19;10.90;99.90
20288;DHT22;10303;51.960;8.372;2023-04-15T07:18:45;11.00;99.90
20288;DHT22;10303;51.960;8.372;2023-04-15T07:21:11;11.00;99.90
20288;DHT22;10303;51.960;8.372;2023-04-15T07:23:37;11.20;99.90
20288;DHT22;10303;51.960;8.372;2023-04-15T07:26:03;11.20;99.90
20288;DHT22;10303;51.960;8.372;2023-04-15T07:28:29;11.10;99.90
20288;DHT22;10303;51.960;8.372;2023-04-15T07:30:55;11.20;99.90
20288;DHT22;10303;51.960;8.372;2023-04-15T07:33:24;11.20;99.90
20288;DHT22;10303;51.960;8.372;2023-04-15T07:35:50;11.20;99.90
20288;DHT22;10303;51.960;8.372;2023-04-15T07:38:16;11.20;99.90
20288;DHT22;10303;51.960;8.372;2023-04-15T07:40:42;11.20;99.90
20288;DHT22;10303;51.960;8.372;2023-04-15T07:43:08;11.20;99.90
20288;DHT22;10303;51.960;8.372;2023-04-15T07:45:34;11.30;99.90
20288;DHT22;10303;51.960;8.372;2023-04-15T07:48:01;11.30;99.90
20288;DHT22;10303;51.960;8.372;2023-04-15T07:50:27;11.30;99.90
20288;DHT22;10303;51.960;8.372;2023-04-15T07:52:53;11.30;99.90
20288;DHT22;10303;51.960;8.372;2023-04-15T07:55:19;11.40;99.90
20288;DHT22;10303;51.960;8.372;2023-04-15T07:57:48;11.40;99.90
20288;DHT22;10303;51.960;8.372;2023-04-15T08:00:15;11.40;99.90
20288;DHT22;10303;51.960;8.372;2023-04-15T08:02:42;11.40;99.90
20288;DHT22;10303;51.960;8.372;2023-04-15T08:05:09;11.40;99.90
20288;DHT22;10303;51.960;8.372;2023-04-15T08:07:36;11.40;99.90
20288;DHT22;10303;51.960;8.372;2023-04-15T08:10:03;11.40;99.90
20288;DHT22;10303;51.960;8.372;2023-04-15T08:12:29;11.50;99.90
20288;DHT22;10303;51.960;8.372;2023-04-15T08:14:56;11.50;99.90
20288;DHT22;10303;51.960;8.372;2023-04-15T08:17:22;11.50;99.90
20288;DHT22;10303;51.960;8.372;2023-04-15T08:19:48;11.60;99.90
20288;DHT22;10303;51.960;8.372;2023-04-15T08:22:14;11.60;99.90
20288;DHT22;10303;51.960;8.372;2023-04-15T08:24:41;11.60;99.90
20288;DHT22;10303;51.960;8.372;2023-04-15T08:27:07;11.60;99.90
20288;DHT22;10303;51.960;8.372;2023-04-15T08:29:33;11.70;99.90
20288;DHT22;10303;51.960;8.372;2023-04-15T08:32:00;11.60;99.90
20288;DHT22;10303;51.960;8.372;2023-04-15T08:34:26;11.70;99.90
20288;DHT22;10303;51.960;8.372;2023-04-15T08:36:53;11.70;99.90
20288;DHT22;10303;51.960;8.372;2023-04-15T08:39:20;11.70;99.90
20288;DHT22;10303;51.960;8.372;2023-04-15T08:41:50;11.70;99.90
20288;DHT22;10303;51.960;8.372;2023-04-15T08:44:23;11.70;99.90
20288;DHT22;10303;51.960;8.372;2023-04-15T08:46:51;11.80;99.90
20288;DHT22;10303;51.960;8.372;2023-04-15T08:49:20;11.80;99.90
20288;DHT22;10303;51.960;8.372;2023-04-15T08:51:48;11.80;99.90
20288;DHT22;10303;51.960;8.372;2023-04-15T08:54:14;11.80;99.90
20288;DHT22;10303;51.960;8.372;2023-04-15T08:56:41;11.80;99.90
20288;DHT22;10303;51.960;8.372;2023-04-15T08:59:07;11.80;99.90
20288;DHT22;10303;51.960;8.372;2023-04-15T09:01:34;11.90;99.90
20288;DHT22;10303;51.960;8.372;2023-04-15T09:04:02;11.90;99.90
20288;DHT22;10303;51.960;8.372;2023-04-15T09:06:33;11.90;99.90
20288;DHT22;10303;51.960;8.372;2023-04-15T09:08:59;11.90;99.90
20288;DHT22;10303;51.960;8.372;2023-04-15T09:11:25;12.00;99.90
20288;DHT22;10303;51.960;8.372;2023-04-15T09:13:51;12.00;99.90
20288;DHT22;10303;51.960;8.372;2023-04-15T09:16:17;12.00;99.90
20288;DHT22;10303;51.960;8.372;2023-04-15T09:18:44;12.00;99.90
20288;DHT22;10303;51.960;8.372;2023-04-15T09:21:12;12.00;99.90
20288;DHT22;10303;51.960;8.372;2023-04-15T09:23:53;12.10;99.90
20288;DHT22;10303;51.960;8.372;2023-04-15T09:26:35;12.10;99.90
20288;DHT22;10303;51.960;8.372;2023-04-15T09:29:04;12.20;99.90
20288;DHT22;10303;51.960;8.372;2023-04-15T09:31:32;12.20;99.90
20288;DHT22;10303;51.960;8.372;2023-04-15T09:33:58;12.20;99.90
20288;DHT22;10303;51.960;8.372;2023-04-15T09:36:24;12.20;99.90
20288;DHT22;10303;51.960;8.372;2023-04-15T09:38:55;12.20;99.90
20288;DHT22;10303;51.960;8.372;2023-04-15T09:41:25;12.30;99.90
20288;DHT22;10303;51.960;8.372;2023-04-15T09:43:51;12.30;99.90
20288;DHT22;10303;51.960;8.372;2023-04-15T09:46:18;12.40;99.90
20288;DHT22;10303;51.960;8.372;2023-04-15T09:48:44;12.40;99.90
20288;DHT22;10303;51.960;8.372;2023-04-15T09:51:10;12.40;99.90
20288;DHT22;10303;51.960;8.372;2023-04-15T09:53:36;12.50;99.90
20288;DHT22;10303;51.960;8.372;2023-04-15T09:56:05;12.50;99.90
20288;DHT22;10303;51.960;8.372;2023-04-15T09:58:34;12.60;99.90
20288;DHT22;10303;51.960;8.372;2023-04-15T10:01:05;12.60;99.90
20288;DHT22;10303;51.960;8.372;2023-04-15T10:03:34;12.60;99.90
20288;DHT22;10303;51.960;8.372;2023-04-15T10:06:02;12.60;99.90
20288;DHT22;10303;51.960;8.372;2023-04-15T10:08:31;12.60;99.90
20288;DHT22;10303;51.960;8.372;2023-04-15T10:11:01;12.70;99.90
20288;DHT22;10303;51.960;8.372;2023-04-15T10:13:29;12.60;99.90
20288;DHT22;10303;51.960;8.372;2023-04-15T10:16:20;12.70;99.90
20288;DHT22;10303;51.960;8.372;2023-04-15T10:18:53;12.70;99.90
20288;DHT22;10303;51.960;8.372;2023-04-15T10:21:21;12.80;99.90
20288;DHT22;10303;51.960;8.372;2023-04-15T10:23:48;12.80;99.90
20288;DHT22;10303;51.960;8.372;2023-04-15T10:26:15;12.80;99.90
20288;DHT22;10303;51.960;8.372;2023-04-15T10:28:46;12.80;99.90
20288;DHT22;10303;51.960;8.372;2023-04-15T10:31:13;12.80;99.90
20288;DHT22;10303;51.960;8.372;2023-04-15T10:33:41;12.90;99.90
20288;DHT22;10303;51.960;8.372;2023-04-15T10:36:09;12.80;99.90
20288;DHT22;10303;51.960;8.372;2023-04-15T10:38:43;12.80;99.90
20288;DHT22;10303;51.960;8.372;2023-04-15T10:41:18;12.80;99.90
20288;DHT22;10303;51.960;8.372;2023-04-15T10:46:41;12.80;99.90
20288;DHT22;10303;51.960;8.372;2023-04-15T10:49:24;12.80;99.90
20288;DHT22;10303;51.960;8.372;2023-04-15T10:51:56;12.70;99.90
20288;DHT22;10303;51.960;8.372;2023-04-15T10:57:12;12.60;99.90
20288;DHT22;10303;51.960;8.372;2023-04-15T11:03:05;12.70;99.90
20288;DHT22;10303;51.960;8.372;2023-04-15T11:05:47;12.70;99.90
20288;DHT22;10303;51.960;8.372;2023-04-15T11:08:15;12.70;99.90
20288;DHT22;10303;51.960;8.372;2023-04-15T11:15:47;12.60;99.90
20288;DHT22;10303;51.960;8.372;2023-04-15T11:18:27;12.60;99.90
20288;DHT22;10303;51.960;8.372;2023-04-15T11:21:00;12.60;99.90
20288;DHT22;10303;51.960;8.372;2023-04-15T11:23:33;12.60;99.90
20288;DHT22;10303;51.960;8.372;2023-04-15T11:26:01;12.60;99.90
20288;DHT22;10303;51.960;8.372;2023-04-15T11:28:32;12.50;99.90
20288;DHT22;10303;51.960;8.372;2023-04-15T11:31:02;12.50;99.90
20288;DHT22;10303;51.960;8.372;2023-04-15T11:33:31;12.50;99.90
20288;DHT22;10303;51.960;8.372;2023-04-15T11:35:58;12.40;99.90
20288;DHT22;10303;51.960;8.372;2023-04-15T11:38:23;12.40;99.90
20288;DHT22;10303;51.960;8.372;2023-04-15T11:40:50;12.50;99.90
20288;DHT22;10303;51.960;8.372;2023-04-15T11:43:19;12.50;99.90
20288;DHT22;10303;51.960;8.372;2023-04-15T11:48:28;12.50;99.90
20288;DHT22;10303;51.960;8.372;2023-04-15T11:51:00;12.60;99.90
20288;DHT22;10303;51.960;8.372;2023-04-15T11:53:47;12.60;99.90
20288;DHT22;10303;51.960;8.372;2023-04-15T11:56:19;12.60;99.90
20288;DHT22;10303;51.960;8.372;2023-04-15T11:58:51;12.60;99.90
20288;DHT22;10303;51.960;8.372;2023-04-15T12:01:18;12.60;99.90
20288;DHT22;10303;51.960;8.372;2023-04-15T12:03:45;12.60;99.90
20288;DHT22;10303;51.960;8.372;2023-04-15T12:06:18;12.60;99.90
20288;DHT22;10303;51.960;8.372;2023-04-15T12:11:27;12.60;99.90
20288;DHT22;10303;51.960;8.372;2023-04-15T12:16:35;12.70;99.90
20288;DHT22;10303;51.960;8.372;2023-04-15T12:19:10;12.70;99.90
20288;DHT22;10303;51.960;8.372;2023-04-15T12:21:40;12.70;99.90
20288;DHT22;10303;51.960;8.372;2023-04-15T12:24:10;12.70;99.90
20288;DHT22;10303;51.960;8.372;2023-04-15T12:29:10;12.60;99.90
20288;DHT22;10303;51.960;8.372;2023-04-15T12:31:46;12.60;99.90
20288;DHT22;10303;51.960;8.372;2023-04-15T12:34:34;12.70;99.90
20288;DHT22;10303;51.960;8.372;2023-04-15T12:37:04;12.60;99.90
20288;DHT22;10303;51.960;8.372;2023-04-15T12:39:34;12.70;99.90
20288;DHT22;10303;51.960;8.372;2023-04-15T12:42:03;12.70;99.90
20288;DHT22;10303;51.960;8.372;2023-04-15T12:44:30;12.60;99.90
20288;DHT22;10303;51.960;8.372;2023-04-15T12:46:56;12.70;99.90
20288;DHT22;10303;51.960;8.372;2023-04-15T12:49:23;12.70;99.90
20288;DHT22;10303;51.960;8.372;2023-04-15T12:51:52;12.60;99.90
20288;DHT22;10303;51.960;8.372;2023-04-15T12:54:20;12.60;99.90
20288;DHT22;10303;51.960;8.372;2023-04-15T12:56:47;12.70;99.90
20288;DHT22;10303;51.960;8.372;2023-04-15T12:59:15;12.70;99.90
20288;DHT22;10303;51.960;8.372;2023-04-15T13:01:46;12.60;99.90
20288;DHT22;10303;51.960;8.372;2023-04-15T13:04:14;12.60;99.90
20288;DHT22;10303;51.960;8.372;2023-04-15T13:06:41;12.70;99.90
20288;DHT22;10303;51.960;8.372;2023-04-15T13:09:07;12.70;99.90
20288;DHT22;10303;51.960;8.372;2023-04-15T13:11:33;12.70;99.90
20288;DHT22;10303;51.960;8.372;2023-04-15T13:14:04;12.60;99.90
20288;DHT22;10303;51.960;8.372;2023-04-15T13:16:32;12.60;99.90
20288;DHT22;10303;51.960;8.372;2023-04-15T13:18:59;12.80;99.90
20288;DHT22;10303;51.960;8.372;2023-04-15T13:21:26;12.70;99.90
20288;DHT22;10303;51.960;8.372;2023-04-15T13:23:53;12.70;99.90
20288;DHT22;10303;51.960;8.372;2023-04-15T13:26:19;12.70;99.90
20288;DHT22;10303;51.960;8.372;2023-04-15T13:28:45;12.70;99.90
20288;DHT22;10303;51.960;8.372;2023-04-15T13:31:11;12.70;99.90
20288;DHT22;10303;51.960;8.372;2023-04-15T13:33:37;12.70;99.90
20288;DHT22;10303;51.960;8.372;2023-04-15T13:36:03;12.70;99.90
20288;DHT22;10303;51.960;8.372;2023-04-15T13:38:29;12.70;99.90
20288;DHT22;10303;51.960;8.372;2023-04-15T13:40:55;12.70;99.90
20288;DHT22;10303;51.960;8.372;2023-04-15T13:43:21;12.70;99.90
20288;DHT22;10303;51.960;8.372;2023-04-15T13:45:47;12.60;99.90
20288;DHT22;10303;51.960;8.372;2023-04-15T13:48:14;12.60;99.90
20288;DHT22;10303;51.960;8.372;2023-04-15T13:50:40;12.60;99.90
20288;DHT22;10303;51.960;8.372;2023-04-15T13:53:10;12.60;99.90
20288;DHT22;10303;51.960;8.372;2023-04-15T13:55:36;12.60;99.90
20288;DHT22;10303;51.960;8.372;2023-04-15T13:58:09;12.60;99.90
20288;DHT22;10303;51.960;8.372;2023-04-15T14:00:36;12.60;99.90
20288;DHT22;10303;51.960;8.372;2023-04-15T14:03:02;12.60;99.90
20288;DHT22;10303;51.960;8.372;2023-04-15T14:05:28;12.60;99.90
20288;DHT22;10303;51.960;8.372;2023-04-15T14:07:54;12.60;99.90
20288;DHT22;10303;51.960;8.372;2023-04-15T14:10:20;12.60;99.90
20288;DHT22;10303;51.960;8.372;2023-04-15T14:12:45;12.60;99.90
20288;DHT22;10303;51.960;8.372;2023-04-15T14:15:11;12.60;99.90
20288;DHT22;10303;51.960;8.372;2023-04-15T14:17:37;12.60;99.90
20288;DHT22;10303;51.960;8.372;2023-04-15T14:20:06;12.50;99.90
20288;DHT22;10303;51.960;8.372;2023-04-15T14:22:33;12.50;99.90
20288;DHT22;10303;51.960;8.372;2023-04-15T14:24:59;12.50;99.90
20288;DHT22;10303;51.960;8.372;2023-04-15T14:27:25;12.60;99.90
20288;DHT22;10303;51.960;8.372;2023-04-15T14:29:51;12.60;99.90
20288;DHT22;10303;51.960;8.372;2023-04-15T14:32:19;12.60;99.90
20288;DHT22;10303;51.960;8.372;2023-04-15T14:34:45;12.60;99.90
20288;DHT22;10303;51.960;8.372;2023-04-15T14:37:11;12.50;99.90
20288;DHT22;10303;51.960;8.372;2023-04-15T14:39:37;12.60;99.90
20288;DHT22;10303;51.960;8.372;2023-04-15T14:42:04;12.50;99.90
20288;DHT22;10303;51.960;8.372;2023-04-15T14:44:30;12.50;99.90
20288;DHT22;10303;51.960;8.372;2023-04-15T14:46:56;12.50;99.90
20288;DHT22;10303;51.960;8.372;2023-04-15T14:49:22;12.50;99.90
20288;DHT22;10303;51.960;8.372;2023-04-15T14:51:48;12.60;99.90
20288;DHT22;10303;51.960;8.372;2023-04-15T14:54:14;12.60;99.90
20288;DHT22;10303;51.960;8.372;2023-04-15T14:56:40;12.60;99.90
20288;DHT22;10303;51.960;8.372;2023-04-15T14:59:06;12.60;99.90
20288;DHT22;10303;51.960;8.372;2023-04-15T15:01:33;12.60;99.90
20288;DHT22;10303;51.960;8.372;2023-04-15T15:03:59;12.60;99.90
20288;DHT22;10303;51.960;8.372;2023-04-15T15:06:25;12.60;99.90
20288;DHT22;10303;51.960;8.372;2023-04-15T15:08:52;12.60;99.90
20288;DHT22;10303;51.960;8.372;2023-04-15T15:11:18;12.70;99.90
20288;DHT22;10303;51.960;8.372;2023-04-15T15:13:44;12.70;99.90
20288;DHT22;10303;51.960;8.372;2023-04-15T15:16:10;12.60;99.90
20288;DHT22;10303;51.960;8.372;2023-04-15T15:18:36;12.60;99.90
20288;DHT22;10303;51.960;8.372;2023-04-15T15:21:01;12.70;99.90
20288;DHT22;10303;51.960;8.372;2023-04-15T15:23:27;12.70;99.90
20288;DHT22;10303;51.960;8.372;2023-04-15T15:25:53;12.60;99.90
20288;DHT22;10303;51.960;8.372;2023-04-15T15:28:19;12.70;99.90
20288;DHT22;10303;51.960;8.372;2023-04-15T15:30:46;12.70;99.90
20288;DHT22;10303;51.960;8.372;2023-04-15T15:33:12;12.70;99.90
20288;DHT22;10303;51.960;8.372;2023-04-15T15:35:38;12.60;99.90
20288;DHT22;10303;51.960;8.372;2023-04-15T15:38:05;12.70;99.90
20288;DHT22;10303;51.960;8.372;2023-04-15T15:40:31;12.70;99.90
20288;DHT22;10303;51.960;8.372;2023-04-15T15:42:57;12.70;99.90
20288;DHT22;10303;51.960;8.372;2023-04-15T15:45:23;12.80;99.90
20288;DHT22;10303;51.960;8.372;2023-04-15T15:47:49;12.80;99.90
20288;DHT22;10303;51.960;8.372;2023-04-15T15:50:16;12.80;99.90
20288;DHT22;10303;51.960;8.372;2023-04-15T15:52:42;12.80;99.90
20288;DHT22;10303;51.960;8.372;2023-04-15T15:55:08;12.80;99.90
20288;DHT22;10303;51.960;8.372;2023-04-15T15:57:34;12.80;99.90
20288;DHT22;10303;51.960;8.372;2023-04-15T16:00:02;12.80;99.90
20288;DHT22;10303;51.960;8.372;2023-04-15T16:02:30;12.80;99.90